Time;durP1;ratioP1;P1;durP2;ratioP2;P2;SDS_P1;SDS_P2;PMS_P1;PMS_P2;Temp;Humidity;BMP_temperature;BMP_pressure;BME280_temperature;BME280_humidity;BME280_pressure;Samples;Min_cycle;Max_cycle;Signal;HPM_P1;HPM_P2
2024/01/30 00:02:11;;;;;;;18.27;11.63;;;9.60;17.40;;;;;;20666188;28;20127;-39
2024/01/30 00:12:12;;;;;;;18.38;11.40;;;9.60;16.60;;;;;;20672716;28;20039;-40
2024/01/30 00:22:12;;;;;;;19.40;11.02;;;9.60;15.80;;;;;;20674188;28;20146;-39
2024/01/30 00:32:13;;;;;;;17.88;11.63;;;9.60;15.80;;;;;;20673144;28;20125;-40
2024/01/30 00:42:13;;;;;;;16.40;11.10;;;9.60;15.10;;;;;;20671104;28;20120;-38
2024/01/30 00:52:14;;;;;;;17.50;11.35;;;9.60;16.40;;;;;;20672691;28;20563;-37
2024/01/30 01:02:17;;;;;;;20.20;10.65;;;9.50;15.40;;;;;;20673150;28;20049;-39
2024/01/30 01:12:17;;;;;;;21.50;11.38;;;9.60;13.30;;;;;;20671853;28;20048;-38
2024/01/30 01:22:18;;;;;;;15.50;9.88;;;9.60;11.70;;;;;;20669030;28;20304;-38
2024/01/30 01:32:19;;;;;;;19.03;10.87;;;9.50;15.70;;;;;;20669204;28;20065;-38
2024/01/30 01:42:20;;;;;;;15.45;10.07;;;9.50;12.60;;;;;;20662758;28;20381;-38
2024/01/30 01:52:20;;;;;;;15.20;9.60;;;9.50;12.70;;;;;;20662960;28;20042;-38
2024/01/30 02:02:23;;;;;;;17.67;9.90;;;9.40;11.80;;;;;;20661990;28;20462;-38
2024/01/30 02:12:23;;;;;;;15.90;10.80;;;9.40;10.10;;;;;;20664841;28;20061;-38
2024/01/30 02:22:24;;;;;;;14.57;10.00;;;9.30;13.90;;;;;;20665310;28;20508;-39
2024/01/30 02:32:25;;;;;;;15.20;9.43;;;9.50;12.00;;;;;;20664613;28;20026;-38
2024/01/30 02:42:25;;;;;;;16.83;10.30;;;9.40;12.00;;;;;;20657418;28;21667;-38
2024/01/30 02:52:26;;;;;;;14.77;9.75;;;9.40;13.40;;;;;;20661839;28;20809;-38
2024/01/30 03:02:27;;;;;;;15.52;9.85;;;9.40;12.70;;;;;;20661844;28;20103;-38
2024/01/30 03:12:27;;;;;;;12.93;9.10;;;9.40;12.50;;;;;;20658616;28;20042;-39
2024/01/30 03:22:28;;;;;;;16.13;10.02;;;9.20;13.80;;;;;;20649887;28;20327;-38
2024/01/30 03:32:29;;;;;;;15.50;9.98;;;9.10;18.00;;;;;;20651937;28;20049;-38
2024/01/30 03:42:29;;;;;;;15.00;9.60;;;9.20;17.10;;;;;;20659150;28;20467;-38
2024/01/30 03:52:30;;;;;;;17.20;10.07;;;9.30;14.70;;;;;;20661524;28;20054;-38
2024/01/30 04:02:30;;;;;;;17.63;10.43;;;9.20;16.00;;;;;;20658506;28;20501;-38
2024/01/30 04:12:31;;;;;;;16.90;10.23;;;9.20;14.80;;;;;;20674020;28;20053;-38
2024/01/30 04:22:32;;;;;;;14.90;9.60;;;9.30;14.20;;;;;;20670303;28;20073;-38
2024/01/30 04:32:33;;;;;;;14.70;9.95;;;9.30;15.30;;;;;;20668066;28;20038;-38
2024/01/30 04:42:33;;;;;;;14.93;9.82;;;9.20;15.00;;;;;;20669884;28;20065;-38
2024/01/30 04:52:34;;;;;;;14.75;9.38;;;9.30;17.20;;;;;;20678262;28;20049;-38
2024/01/30 05:02:34;;;;;;;14.20;9.43;;;9.20;17.40;;;;;;20670524;28;20042;-38
2024/01/30 05:12:35;;;;;;;15.75;9.43;;;9.40;16.30;;;;;;20669933;28;20583;-38
2024/01/30 05:22:35;;;;;;;14.15;8.82;;;9.40;16.30;;;;;;20671576;28;20068;-38
2024/01/30 05:32:36;;;;;;;13.55;9.18;;;9.50;16.80;;;;;;20659784;28;20463;-39
2024/01/30 05:42:37;;;;;;;14.70;9.23;;;9.30;20.50;;;;;;20665504;28;20046;-39
2024/01/30 05:52:37;;;;;;;12.48;8.55;;;9.40;20.60;;;;;;20657995;28;20413;-40
2024/01/30 06:02:38;;;;;;;14.75;9.35;;;9.40;19.00;;;;;;20666093;28;20046;-39
2024/01/30 06:12:39;;;;;;;14.38;8.98;;;9.40;23.30;;;;;;20663857;28;20046;-39
2024/01/30 06:22:40;;;;;;;15.10;9.48;;;9.50;23.00;;;;;;20663931;28;20105;-39
2024/01/30 06:32:41;;;;;;;16.95;9.25;;;9.60;21.50;;;;;;20655738;28;20073;-39
2024/01/30 06:42:41;;;;;;;14.48;9.02;;;9.70;21.70;;;;;;20652756;28;20050;-39
2024/01/30 06:52:42;;;;;;;15.30;9.65;;;9.60;23.50;;;;;;20666535;28;20133;-38
2024/01/30 07:02:42;;;;;;;14.25;9.50;;;9.80;24.60;;;;;;20662942;28;20188;-39
2024/01/30 07:12:45;;;;;;;16.00;10.52;;;9.90;22.80;;;;;;20662473;28;20445;-39
2024/01/30 07:22:46;;;;;;;16.38;9.80;;;9.80;25.70;;;;;;20671336;28;20058;-39
2024/01/30 07:32:46;;;;;;;17.90;11.77;;;9.90;28.00;;;;;;20666925;28;20087;-39
2024/01/30 07:42:48;;;;;;;16.02;10.82;;;10.10;24.10;;;;;;20674072;28;20608;-39
2024/01/30 07:52:51;;;;;;;17.10;9.05;;;10.10;26.00;;;;;;20684181;28;20069;-39
2024/01/30 08:02:54;;;;;;;16.88;9.00;;;10.20;22.20;;;;;;20679990;28;20161;-39
2024/01/30 08:12:54;;;;;;;16.17;10.02;;;10.20;24.10;;;;;;20675115;28;20124;-38
2024/01/30 08:22:55;;;;;;;13.82;8.20;;;10.30;25.50;;;;;;20666259;28;20045;-39
2024/01/30 08:32:55;;;;;;;16.57;8.67;;;10.30;26.70;;;;;;20668203;28;20029;-39
2024/01/30 08:42:56;;;;;;;16.83;8.70;;;10.30;27.00;;;;;;20663612;28;20053;-39
2024/01/30 08:52:57;;;;;;;15.48;8.73;;;10.40;35.40;;;;;;20665962;28;20401;-39
2024/01/30 09:02:57;;;;;;;15.47;9.97;;;10.70;30.50;;;;;;20663643;28;20041;-39
2024/01/30 09:12:58;;;;;;;19.38;10.00;;;10.80;27.70;;;;;;20659436;28;20476;-39
2024/01/30 09:22:58;;;;;;;19.70;11.27;;;10.80;29.80;;;;;;20660451;28;20038;-39
2024/01/30 09:32:59;;;;;;;22.63;11.80;;;10.70;34.50;;;;;;20661802;28;20041;-39
2024/01/30 09:43:00;;;;;;;93.97;28.92;;;10.80;36.90;;;;;;20653661;28;20045;-39
2024/01/30 09:53:01;;;;;;;45.38;20.25;;;11.10;35.70;;;;;;20661868;28;20494;-39
2024/01/30 10:03:01;;;;;;;14.48;8.90;;;11.30;27.60;;;;;;20666058;28;20134;-39
2024/01/30 10:13:02;;;;;;;17.92;8.60;;;11.50;22.10;;;;;;20671167;28;20034;-39
2024/01/30 10:23:06;;;;;;;14.10;8.52;;;11.70;14.80;;;;;;20665834;28;20532;-39
2024/01/30 10:33:06;;;;;;;14.13;7.40;;;11.70;12.40;;;;;;20665942;28;20044;-39
2024/01/30 10:43:10;;;;;;;13.30;6.57;;;11.70;1.60;;;;;;20660925;28;20129;-39
2024/01/30 10:53:12;;;;;;;11.65;4.80;;;11.80;1.00;;;;;;20666692;28;20203;-39
2024/01/30 11:03:13;;;;;;;9.60;3.88;;;11.80;1.00;;;;;;20657012;28;20117;-39
2024/01/30 11:13:16;;;;;;;13.27;2.60;;;11.30;1.00;;;;;;20667210;28;20149;-39
2024/01/30 11:23:16;;;;;;;5.72;2.88;;;11.00;1.00;;;;;;20685155;28;20478;-38
2024/01/30 11:33:30;;;;;;;9.02;3.70;;;10.90;1.00;;;;;;20683787;28;20463;-39
2024/01/30 11:43:30;;;;;;;4.90;2.40;;;10.70;1.00;;;;;;20681857;28;20051;-39
2024/01/30 11:53:31;;;;;;;5.27;2.17;;;10.60;1.00;;;;;;20683959;28;20034;-39
2024/01/30 12:03:32;;;;;;;6.20;1.70;;;10.50;1.00;;;;;;20678528;28;20511;-39
2024/01/30 12:13:33;;;;;;;5.65;1.40;;;10.30;1.00;;;;;;20677602;28;20038;-39
2024/01/30 12:23:34;;;;;;;5.13;1.13;;;10.20;1.00;;;;;;20677796;28;20088;-39
2024/01/30 12:33:36;;;;;;;4.78;1.13;;;10.10;1.00;;;;;;20675136;28;20065;-38
2024/01/30 12:43:37;;;;;;;5.18;1.20;;;10.10;1.00;;;;;;20674768;28;20035;-38
2024/01/30 12:53:37;;;;;;;4.93;1.08;;;10.10;1.00;;;;;;20683416;28;20525;-39
2024/01/30 13:03:38;;;;;;;7.20;1.03;;;9.90;1.00;;;;;;20674215;28;20593;-39
2024/01/30 13:13:39;;;;;;;5.93;1.50;;;9.80;1.00;;;;;;20677038;28;20890;-39
2024/01/30 13:23:39;;;;;;;7.65;2.00;;;9.90;1.00;;;;;;20669411;28;20457;-39
2024/01/30 13:33:40;;;;;;;7.00;1.70;;;9.80;7.80;;;;;;20676467;28;20039;-40
2024/01/30 13:43:41;;;;;;;5.65;1.85;;;9.80;17.30;;;;;;20673165;28;20041;-40
2024/01/30 13:53:41;;;;;;;5.17;2.23;;;9.60;31.90;;;;;;20676413;28;20521;-40
2024/01/30 14:03:42;;;;;;;9.13;2.50;;;9.30;63.50;;;;;;20669966;28;20104;-40
2024/01/30 14:13:43;;;;;;;4.88;2.08;;;9.30;94.50;;;;;;20671695;28;20070;-39
2024/01/30 14:23:44;;;;;;;6.00;2.45;;;9.30;99.90;;;;;;20675969;28;20038;-41
2024/01/30 14:33:44;;;;;;;6.70;4.00;;;9.20;99.90;;;;;;20673890;28;20045;-40
2024/01/30 14:43:45;;;;;;;5.15;2.60;;;9.20;99.90;;;;;;20668690;28;20410;-40
2024/01/30 14:53:46;;;;;;;5.47;2.72;;;9.10;99.90;;;;;;20671772;28;20508;-40
2024/01/30 15:03:46;;;;;;;6.78;3.15;;;9.10;99.90;;;;;;20667928;28;20138;-40
2024/01/30 15:13:47;;;;;;;8.18;4.45;;;9.10;99.90;;;;;;20665939;28;20592;-40
2024/01/30 15:23:48;;;;;;;8.37;4.37;;;9.00;99.90;;;;;;20667727;28;20045;-40
2024/01/30 15:33:48;;;;;;;8.52;4.43;;;9.00;99.90;;;;;;20670448;28;21114;-39
2024/01/30 15:43:49;;;;;;;7.65;5.30;;;8.90;99.90;;;;;;20669633;28;20498;-41
2024/01/30 15:53:50;;;;;;;8.52;6.32;;;8.90;99.90;;;;;;20673221;28;20042;-39
2024/01/30 16:03:51;;;;;;;10.88;6.18;;;8.80;99.90;;;;;;20677817;28;20050;-39
2024/01/30 16:13:52;;;;;;;9.68;5.05;;;8.80;99.90;;;;;;20675799;28;20524;-39
2024/01/30 16:23:53;;;;;;;6.65;2.33;;;8.80;99.90;;;;;;20672160;28;20128;-39
2024/01/30 16:33:54;;;;;;;5.35;2.50;;;8.80;99.90;;;;;;20672048;28;20721;-39
2024/01/30 16:43:55;;;;;;;8.23;2.67;;;8.60;99.90;;;;;;20667221;28;20446;-39
2024/01/30 16:53:55;;;;;;;6.80;2.50;;;8.60;99.90;;;;;;20678221;28;20042;-39
2024/01/30 17:03:56;;;;;;;10.93;2.72;;;8.70;99.90;;;;;;20679079;28;20112;-39
2024/01/30 17:13:56;;;;;;;8.38;2.08;;;8.60;99.90;;;;;;20675251;28;20036;-39
2024/01/30 17:23:57;;;;;;;9.70;2.65;;;8.50;99.90;;;;;;20676785;28;20042;-39
2024/01/30 17:33:57;;;;;;;10.57;1.85;;;8.50;99.90;;;;;;20676453;28;20536;-39
2024/01/30 17:43:58;;;;;;;9.88;1.83;;;8.40;99.90;;;;;;20666642;28;20046;-39
2024/01/30 17:53:58;;;;;;;9.68;2.10;;;8.40;99.90;;;;;;20668316;28;20042;-39
2024/01/30 18:03:59;;;;;;;12.88;1.98;;;8.20;99.90;;;;;;20665666;28;20077;-39
2024/01/30 18:14:00;;;;;;;24.13;2.37;;;8.30;99.90;;;;;;20666622;28;20042;-39
2024/01/30 18:24:01;;;;;;;10.70;2.10;;;8.30;99.90;;;;;;20669455;28;20446;-39
2024/01/30 18:34:02;;;;;;;12.15;1.75;;;8.10;99.90;;;;;;20663250;28;20049;-39
2024/01/30 18:44:02;;;;;;;11.48;2.22;;;8.00;99.90;;;;;;20659663;28;20058;-39
2024/01/30 18:54:03;;;;;;;14.02;1.58;;;8.00;99.90;;;;;;20670896;28;20084;-39
2024/01/30 19:04:04;;;;;;;17.25;2.88;;;7.90;99.90;;;;;;20670700;28;20038;-39
2024/01/30 19:14:05;;;;;;;13.50;2.10;;;7.90;99.90;;;;;;20667058;28;20501;-39
2024/01/30 19:24:06;;;;;;;18.30;1.73;;;7.90;99.90;;;;;;20670666;28;20384;-39
2024/01/30 19:34:07;;;;;;;16.10;1.92;;;7.90;99.90;;;;;;20670035;28;20898;-39
2024/01/30 19:44:07;;;;;;;10.60;1.65;;;7.80;99.90;;;;;;20683127;28;20596;-39
2024/01/30 19:54:17;;;;;;;14.43;1.70;;;7.80;99.90;;;;;;20673438;28;20052;-39
2024/01/30 20:04:18;;;;;;;12.30;1.45;;;7.80;99.90;;;;;;20673622;28;20037;-39
2024/01/30 20:14:18;;;;;;;6.38;1.02;;;7.80;99.90;;;;;;20681183;28;20056;-39
2024/01/30 20:24:19;;;;;;;6.28;1.25;;;7.80;99.90;;;;;;20676211;28;20049;-39
2024/01/30 20:34:19;;;;;;;10.07;1.20;;;7.70;92.00;;;;;;20664139;28;20039;-39
2024/01/30 20:44:20;;;;;;;7.38;1.38;;;7.60;99.90;;;;;;20664713;28;20509;-39
2024/01/30 20:54:21;;;;;;;8.38;1.73;;;7.40;99.90;;;;;;20669346;28;20520;-40
2024/01/30 21:04:22;;;;;;;10.90;1.53;;;7.30;99.90;;;;;;20665123;28;20096;-39
2024/01/30 21:14:22;;;;;;;8.63;1.50;;;7.20;99.90;;;;;;20667579;28;20553;-39
2024/01/30 21:24:23;;;;;;;7.30;1.70;;;7.10;99.90;;;;;;20671673;28;20057;-39
2024/01/30 21:34:23;;;;;;;11.95;3.42;;;7.00;99.90;;;;;;20662517;28;20054;-39
2024/01/30 21:44:24;;;;;;;9.90;2.95;;;6.80;99.90;;;;;;20661961;28;20427;-39
2024/01/30 21:54:25;;;;;;;11.82;2.33;;;6.60;99.90;;;;;;20668042;28;20042;-39
2024/01/30 22:04:26;;;;;;;10.13;2.35;;;6.70;99.90;;;;;;20668362;28;20126;-39
2024/01/30 22:14:26;;;;;;;10.43;2.63;;;6.70;99.90;;;;;;20669471;28;20061;-39
2024/01/30 22:24:27;;;;;;;8.40;2.55;;;6.50;99.90;;;;;;20670421;28;20050;-39
2024/01/30 22:34:27;;;;;;;4.97;2.08;;;6.40;99.90;;;;;;20670236;28;20465;-39
2024/01/30 22:44:28;;;;;;;6.18;1.42;;;6.10;99.90;;;;;;20637133;28;1120188;-39
2024/01/30 22:54:29;;;;;;;3.50;1.23;;;5.90;99.90;;;;;;20675181;28;20034;-39
2024/01/30 23:04:29;;;;;;;3.92;0.98;;;5.70;99.90;;;;;;20667583;28;20449;-39
2024/01/30 23:14:30;;;;;;;4.70;1.60;;;5.60;99.90;;;;;;20673189;28;20038;-39
2024/01/30 23:24:31;;;;;;;6.17;1.40;;;5.60;99.90;;;;;;20672263;28;20111;-39
2024/01/30 23:34:32;;;;;;;5.82;1.38;;;5.60;99.90;;;;;;20673858;28;20507;-39
2024/01/30 23:44:32;;;;;;;3.85;1.35;;;5.50;99.90;;;;;;20660829;28;20058;-40
2024/01/30 23:54:33;;;;;;;4.65;0.93;;;5.60;99.90;;;;;;20662087;28;20105;-41
